Time;durP1;ratioP1;P1;durP2;ratioP2;P2;SDS_P1;SDS_P2;PMS_P1;PMS_P2;Temp;Humidity;BMP_temperature;BMP_pressure;BME280_temperature;BME280_humidity;BME280_pressure;Samples;Min_cycle;Max_cycle;Signal;HPM_P1;HPM_P2
2022/03/02 00:00:38;;;;;;;19.57;18.17;;;;;;;-141.02;100.00;55844.97;5136163;27;20311;-69
2022/03/02 00:03:05;;;;;;;16.30;15.60;;;;;;;-141.02;100.00;55844.97;5135899;27;20193;-69
2022/03/02 00:05:33;;;;;;;17.23;16.50;;;;;;;-141.02;100.00;55844.97;5135792;27;20249;-70
2022/03/02 00:08:00;;;;;;;17.00;16.27;;;;;;;-141.02;100.00;55844.97;5135842;27;20216;-69
2022/03/02 00:10:27;;;;;;;17.53;16.43;;;;;;;-141.02;100.00;55844.97;5135712;27;20196;-69
2022/03/02 00:12:54;;;;;;;17.40;16.60;;;;;;;-141.02;100.00;55844.97;5135742;27;20243;-70
2022/03/02 00:15:21;;;;;;;17.37;16.57;;;;;;;-141.02;100.00;55844.97;5135654;27;20636;-70
2022/03/02 00:17:48;;;;;;;16.27;15.57;;;;;;;-141.02;100.00;55844.97;5135589;27;20719;-70
2022/03/02 00:20:16;;;;;;;17.17;16.17;;;;;;;-141.02;100.00;55844.97;5135817;27;20277;-70
2022/03/02 00:22:44;;;;;;;16.67;15.97;;;;;;;-141.02;100.00;55844.97;5135822;27;20265;-70
2022/03/02 00:25:11;;;;;;;16.90;16.10;;;;;;;-141.02;100.00;55844.97;5135473;27;20734;-70
2022/03/02 00:27:38;;;;;;;16.03;15.43;;;;;;;-141.02;100.00;55844.97;5135377;27;20204;-69
2022/03/02 00:30:10;;;;;;;17.20;16.20;;;;;;;-141.02;100.00;55844.97;5135648;27;20192;-70
2022/03/02 00:32:37;;;;;;;18.47;17.37;;;;;;;-141.02;100.00;55844.97;5135623;27;20251;-70
2022/03/02 00:35:05;;;;;;;18.00;16.80;;;;;;;-141.02;100.00;55844.97;5135564;27;20299;-69
2022/03/02 00:37:32;;;;;;;20.60;19.30;;;;;;;-141.02;100.00;55844.97;5135192;27;20197;-70
2022/03/02 00:40:00;;;;;;;19.20;18.27;;;;;;;-141.02;100.00;55844.97;5134504;27;20311;-70
2022/03/02 00:42:29;;;;;;;20.60;19.37;;;;;;;-141.02;100.00;55844.97;5135089;27;20239;-70
2022/03/02 00:44:57;;;;;;;19.40;18.40;;;;;;;-141.02;100.00;55844.97;5135006;27;20225;-69
2022/03/02 00:47:24;;;;;;;19.73;18.60;;;;;;;-141.02;100.00;55844.97;5134962;27;20558;-70
2022/03/02 00:49:51;;;;;;;20.27;19.17;;;;;;;-141.02;100.00;55844.97;5134962;27;20657;-70
2022/03/02 00:52:19;;;;;;;18.43;17.53;;;;;;;-141.02;100.00;55844.97;5135189;27;20200;-70
2022/03/02 00:54:46;;;;;;;19.77;18.47;;;;;;;-141.02;100.00;55844.97;5135172;27;20344;-70
2022/03/02 00:57:14;;;;;;;19.90;18.70;;;;;;;-141.02;100.00;55844.97;5135128;27;20192;-70
2022/03/02 00:59:41;;;;;;;18.10;17.30;;;;;;;-141.02;100.00;55844.97;5135128;27;20200;-70
2022/03/02 01:02:08;;;;;;;18.77;17.57;;;;;;;-141.02;100.00;55844.97;5134993;27;20255;-70
2022/03/02 01:04:35;;;;;;;18.43;17.40;;;;;;;-141.02;100.00;55844.97;5134605;27;20253;-70
2022/03/02 01:07:03;;;;;;;17.33;16.53;;;;;;;-141.02;100.00;55844.97;5135005;27;20615;-69
2022/03/02 01:09:30;;;;;;;17.80;16.97;;;;;;;-141.02;100.00;55844.97;5134860;27;20245;-69
2022/03/02 01:11:57;;;;;;;17.90;17.10;;;;;;;-141.02;100.00;55844.97;5134463;27;20750;-70
2022/03/02 01:14:28;;;;;;;18.00;17.20;;;;;;;-141.02;100.00;55844.97;5134743;27;20275;-70
2022/03/02 01:16:55;;;;;;;17.30;16.50;;;;;;;-141.02;100.00;55844.97;5134420;27;20192;-70
2022/03/02 01:19:21;;;;;;;18.93;18.03;;;;;;;-141.02;100.00;55844.97;5134613;27;20686;-70
2022/03/02 01:21:49;;;;;;;19.27;18.27;;;;;;;-141.02;100.00;55844.97;5134186;27;20319;-69
2022/03/02 01:24:16;;;;;;;19.70;18.60;;;;;;;-141.02;100.00;55844.97;5134597;27;20292;-70
2022/03/02 01:26:44;;;;;;;18.13;17.23;;;;;;;-141.02;100.00;55844.97;5134159;27;20284;-69
2022/03/02 01:29:11;;;;;;;17.70;16.90;;;;;;;-141.02;100.00;55844.97;5135059;27;20227;-70
2022/03/02 01:31:40;;;;;;;18.43;17.53;;;;;;;-141.02;100.00;55844.97;5134439;27;20734;-70
2022/03/02 01:34:07;;;;;;;18.27;17.37;;;;;;;-141.02;100.00;55844.97;5134324;27;20228;-70
2022/03/02 01:36:34;;;;;;;18.53;17.63;;;;;;;-141.02;100.00;55844.97;5134066;27;20192;-70
2022/03/02 01:39:01;;;;;;;18.27;17.37;;;;;;;-141.02;100.00;55844.97;5133976;27;20224;-70
2022/03/02 01:41:28;;;;;;;17.70;16.90;;;;;;;-141.02;100.00;55844.97;5133853;27;20634;-70
2022/03/02 01:43:56;;;;;;;18.50;17.67;;;;;;;-141.02;100.00;55844.97;5134250;27;20228;-70
2022/03/02 01:46:24;;;;;;;17.73;16.93;;;;;;;-141.02;100.00;55844.97;5133895;27;20249;-70
2022/03/02 01:48:53;;;;;;;18.33;17.43;;;;;;;-141.02;100.00;55844.97;5134161;27;20231;-69
2022/03/02 01:51:20;;;;;;;17.90;17.10;;;;;;;-141.02;100.00;55844.97;5133258;27;20197;-70
2022/03/02 01:53:48;;;;;;;17.37;16.57;;;;;;;-141.02;100.00;55844.97;5133728;27;20196;-70
2022/03/02 01:56:15;;;;;;;17.77;16.97;;;;;;;-141.02;100.00;55844.97;5133892;27;20715;-69
2022/03/02 01:58:44;;;;;;;16.83;16.13;;;;;;;-141.02;100.00;55844.97;5133936;27;20207;-70
2022/03/02 02:01:11;;;;;;;17.63;16.83;;;;;;;-141.02;100.00;55844.97;5133795;27;20241;-70
2022/03/02 02:03:39;;;;;;;17.53;16.77;;;;;;;-141.02;100.00;55844.97;5133536;27;20682;-69
2022/03/02 02:06:08;;;;;;;19.00;18.10;;;;;;;-141.02;100.00;55844.97;5133540;27;20238;-70
2022/03/02 02:08:35;;;;;;;18.33;17.43;;;;;;;-141.02;100.00;55844.97;5133406;27;20196;-69
2022/03/02 02:11:04;;;;;;;18.27;17.37;;;;;;;-141.02;100.00;55844.97;5134295;27;20253;-69
2022/03/02 02:13:32;;;;;;;19.13;18.23;;;;;;;-141.02;100.00;55844.97;5133332;27;20287;-69
2022/03/02 02:15:59;;;;;;;17.33;16.53;;;;;;;-141.02;100.00;55844.97;5133305;27;20188;-69
2022/03/02 02:18:26;;;;;;;18.17;17.37;;;;;;;-141.02;100.00;55844.97;5133630;27;20232;-69
2022/03/02 02:20:54;;;;;;;18.30;17.30;;;;;;;-141.02;100.00;55844.97;5133442;27;20250;-69
2022/03/02 02:23:21;;;;;;;18.37;17.33;;;;;;;-141.02;100.00;55844.97;5133575;27;20275;-69
2022/03/02 02:25:48;;;;;;;17.53;16.73;;;;;;;-141.02;100.00;55844.97;5133471;27;20220;-69
2022/03/02 02:28:22;;;;;;;17.70;16.90;;;;;;;-141.02;100.00;55844.97;5133491;27;20231;-69
2022/03/02 02:30:50;;;;;;;16.53;15.83;;;;;;;-141.02;100.00;55844.97;5133131;27;20625;-69
2022/03/02 02:33:17;;;;;;;17.27;16.47;;;;;;;-141.02;100.00;55844.97;5133440;27;20227;-70
2022/03/02 02:35:45;;;;;;;16.87;16.17;;;;;;;-141.02;100.00;55844.97;5133357;27;20273;-69
2022/03/02 02:38:13;;;;;;;17.77;16.90;;;;;;;-141.02;100.00;55844.97;5133411;27;20702;-70
2022/03/02 02:40:42;;;;;;;19.33;18.33;;;;;;;-141.02;100.00;55844.97;5132742;28;20260;-70
2022/03/02 02:43:10;;;;;;;19.97;18.73;;;;;;;-141.02;100.00;55844.97;5133270;27;20662;-70
2022/03/02 02:45:37;;;;;;;17.77;16.90;;;;;;;-141.02;100.00;55844.97;5132939;28;20754;-70
2022/03/02 02:48:04;;;;;;;19.17;17.73;;;;;;;-141.02;100.00;55844.97;5133224;28;20275;-70
2022/03/02 02:50:33;;;;;;;17.63;16.83;;;;;;;-141.02;100.00;55844.97;5133250;28;20196;-70
2022/03/02 02:53:05;;;;;;;17.50;16.60;;;;;;;-141.02;100.00;55844.97;5132855;28;20280;-70
2022/03/02 02:55:35;;;;;;;19.63;18.70;;;;;;;-141.02;100.00;55844.97;5132894;28;20652;-70
2022/03/02 02:58:03;;;;;;;17.40;16.60;;;;;;;-141.02;100.00;55844.97;5132877;27;20225;-70
2022/03/02 03:00:33;;;;;;;17.87;16.97;;;;;;;-141.02;100.00;55844.97;5132771;28;20266;-69
2022/03/02 03:03:00;;;;;;;18.17;17.27;;;;;;;-141.02;100.00;55844.97;5134690;27;20315;-70
2022/03/02 03:05:31;;;;;;;16.80;16.10;;;;;;;-141.02;100.00;55844.97;5136907;27;20661;-69
2022/03/02 03:07:59;;;;;;;17.10;16.30;;;;;;;-141.02;100.00;55844.97;5136945;27;20184;-70
2022/03/02 03:10:27;;;;;;;18.37;17.47;;;;;;;-141.02;100.00;55844.97;5136848;27;20709;-70
2022/03/02 03:12:55;;;;;;;18.03;17.13;;;;;;;-141.02;100.00;55844.97;5136845;27;20567;-70
2022/03/02 03:15:23;;;;;;;18.07;17.27;;;;;;;-141.02;100.00;55844.97;5136835;27;20654;-70
2022/03/02 03:17:51;;;;;;;17.53;16.73;;;;;;;-141.02;100.00;55844.97;5137134;27;20192;-70
2022/03/02 03:20:20;;;;;;;17.70;16.90;;;;;;;-141.02;100.00;55844.97;5136702;27;20196;-70
2022/03/02 03:22:47;;;;;;;17.27;16.47;;;;;;;-141.02;100.00;55844.97;5136600;27;20235;-70
2022/03/02 03:25:15;;;;;;;17.87;16.93;;;;;;;-141.02;100.00;55844.97;5136943;27;20224;-70
2022/03/02 03:27:43;;;;;;;17.43;16.63;;;;;;;-141.02;100.00;55844.97;5136853;27;20196;-69
2022/03/02 03:30:14;;;;;;;18.33;17.33;;;;;;;-141.02;100.00;55844.97;5136540;27;20212;-70
2022/03/02 03:32:41;;;;;;;16.33;15.57;;;;;;;-141.02;100.00;55844.97;5136488;27;20224;-70
2022/03/02 03:35:10;;;;;;;16.03;15.33;;;;;;;-141.02;100.00;55844.97;5136734;27;20196;-70
2022/03/02 03:37:38;;;;;;;16.53;15.83;;;;;;;-141.02;100.00;55844.97;5136750;27;20192;-70
2022/03/02 03:40:07;;;;;;;16.73;16.03;;;;;;;-141.02;100.00;55844.97;5136114;27;20705;-70
2022/03/02 03:42:34;;;;;;;17.37;16.57;;;;;;;-141.02;100.00;55844.97;5136540;27;20224;-69
2022/03/02 03:45:01;;;;;;;17.60;16.80;;;;;;;-141.02;100.00;55844.97;5136188;27;20201;-69
2022/03/02 03:47:29;;;;;;;17.87;17.07;;;;;;;-141.02;100.00;55844.97;5136517;27;20224;-69
2022/03/02 03:49:56;;;;;;;17.43;16.63;;;;;;;-141.02;100.00;55844.97;5136203;27;20253;-69
2022/03/02 03:52:23;;;;;;;17.00;16.30;;;;;;;-141.02;100.00;55844.97;5136077;27;20239;-69
2022/03/02 03:54:50;;;;;;;17.00;16.30;;;;;;;-141.02;100.00;55844.97;5136367;27;20232;-70
2022/03/02 03:57:17;;;;;;;16.83;16.13;;;;;;;-141.02;100.00;55844.97;5136018;27;20193;-70
2022/03/02 03:59:44;;;;;;;18.23;17.13;;;;;;;-141.02;100.00;55844.97;5137132;27;20367;-70
2022/03/02 04:02:11;;;;;;;17.50;16.70;;;;;;;-141.02;100.00;55844.97;5136171;27;20271;-69
2022/03/02 04:04:40;;;;;;;16.97;16.27;;;;;;;-141.02;100.00;55844.97;5136180;27;20188;-69
2022/03/02 04:07:07;;;;;;;19.27;18.17;;;;;;;-141.02;100.00;55844.97;5136160;27;20261;-69
2022/03/02 04:09:34;;;;;;;16.53;15.83;;;;;;;-141.02;100.00;55844.97;5135790;27;20239;-69
2022/03/02 04:12:01;;;;;;;16.43;15.73;;;;;;;-141.02;100.00;55844.97;5136063;27;20202;-69
2022/03/02 04:14:28;;;;;;;17.50;16.70;;;;;;;-141.02;100.00;55844.97;5135026;27;20228;-69
2022/03/02 04:16:55;;;;;;;17.73;16.93;;;;;;;-141.02;100.00;55844.97;5135931;27;20192;-69
2022/03/02 04:19:22;;;;;;;17.40;16.60;;;;;;;-141.02;100.00;55844.97;5135879;27;20224;-70
2022/03/02 04:21:50;;;;;;;15.53;14.93;;;;;;;-141.02;100.00;55844.97;5135410;27;20301;-72
2022/03/02 04:24:18;;;;;;;18.37;17.43;;;;;;;-141.02;100.00;55844.97;5135444;27;20298;-70
2022/03/02 04:26:45;;;;;;;16.87;16.17;;;;;;;-141.02;100.00;55844.97;5136515;27;20243;-69
2022/03/02 04:29:12;;;;;;;17.37;16.57;;;;;;;-141.02;100.00;55844.97;5135389;27;20203;-69
2022/03/02 04:31:39;;;;;;;16.60;15.90;;;;;;;-141.02;100.00;55844.97;5135346;27;20239;-70
2022/03/02 04:34:06;;;;;;;16.87;16.17;;;;;;;-141.02;100.00;55844.97;5135290;27;20193;-69
2022/03/02 04:36:33;;;;;;;17.43;16.63;;;;;;;-141.02;100.00;55844.97;5135210;27;20193;-70
2022/03/02 04:39:01;;;;;;;17.20;16.30;;;;;;;-141.02;100.00;55844.97;5134963;27;20655;-70
2022/03/02 04:41:28;;;;;;;15.73;15.13;;;;;;;-141.02;100.00;55844.97;5135448;27;20267;-69
2022/03/02 04:43:55;;;;;;;15.90;15.23;;;;;;;-141.02;100.00;55844.97;5135407;27;20265;-69
2022/03/02 04:46:22;;;;;;;15.90;15.20;;;;;;;-141.02;100.00;55844.97;5135388;27;20256;-69
2022/03/02 04:48:49;;;;;;;16.20;15.50;;;;;;;-141.02;100.00;55844.97;5135346;27;20197;-69
2022/03/02 04:51:17;;;;;;;16.30;15.60;;;;;;;-141.02;100.00;55844.97;5135272;27;20224;-70
2022/03/02 04:53:44;;;;;;;16.20;15.50;;;;;;;-141.02;100.00;55844.97;5134910;27;20230;-69
2022/03/02 04:56:13;;;;;;;16.53;15.83;;;;;;;-141.02;100.00;55844.97;5135179;27;20197;-69
2022/03/02 04:58:40;;;;;;;15.67;14.97;;;;;;;-141.02;100.00;55844.97;5135107;27;20193;-69
2022/03/02 05:01:07;;;;;;;17.17;16.37;;;;;;;-141.02;100.00;55844.97;5135600;27;20192;-70
2022/03/02 05:03:34;;;;;;;15.67;15.07;;;;;;;-141.02;100.00;55844.97;5134969;27;20224;-70
2022/03/02 05:06:01;;;;;;;16.10;15.47;;;;;;;-141.02;100.00;55844.97;5134645;27;20276;-69
2022/03/02 05:08:28;;;;;;;16.43;15.27;;;;;;;-141.02;100.00;55844.97;5134576;27;20670;-69
2022/03/02 05:10:55;;;;;;;15.10;14.50;;;;;;;-141.02;100.00;55844.97;5134895;27;20198;-69
2022/03/02 05:13:24;;;;;;;15.83;15.23;;;;;;;-141.02;100.00;55844.97;5134824;27;20192;-70
2022/03/02 05:15:51;;;;;;;15.90;15.23;;;;;;;-141.02;100.00;55844.97;5134782;27;20279;-70
2022/03/02 05:18:18;;;;;;;16.67;15.97;;;;;;;-141.02;100.00;55844.97;5134405;27;20678;-71
2022/03/02 05:20:45;;;;;;;16.37;15.60;;;;;;;-141.02;100.00;55844.97;5134601;27;20610;-70
2022/03/02 05:23:12;;;;;;;16.53;15.83;;;;;;;-141.02;100.00;55844.97;5134279;27;20717;-70
2022/03/02 05:25:39;;;;;;;15.57;14.97;;;;;;;-141.02;100.00;55844.97;5134549;27;20639;-70
2022/03/02 05:28:06;;;;;;;19.40;18.50;;;;;;;-141.02;100.00;55844.97;5134617;27;20628;-71
2022/03/02 05:30:34;;;;;;;18.50;17.80;;;;;;;-141.02;100.00;55844.97;5134226;27;20193;-70
2022/03/02 05:33:01;;;;;;;19.03;18.33;;;;;;;-141.02;100.00;55844.97;5134134;27;20231;-70
2022/03/02 05:35:28;;;;;;;18.07;17.43;;;;;;;-141.02;100.00;55844.97;5134354;27;20253;-70
2022/03/02 05:37:55;;;;;;;17.47;16.77;;;;;;;-141.02;100.00;55844.97;5134360;27;20200;-70
2022/03/02 05:40:23;;;;;;;17.90;17.10;;;;;;;-141.02;100.00;55844.97;5133948;27;20307;-70
2022/03/02 05:42:50;;;;;;;19.00;18.10;;;;;;;-141.02;100.00;55844.97;5134209;27;20277;-70
2022/03/02 05:45:17;;;;;;;18.60;17.70;;;;;;;-141.02;100.00;55844.97;5134233;27;20223;-70
2022/03/02 05:47:45;;;;;;;17.83;17.03;;;;;;;-141.02;100.00;55844.97;5133861;27;20658;-70
2022/03/02 05:50:12;;;;;;;20.67;19.87;;;;;;;-141.02;100.00;55844.97;5134112;27;20242;-70
2022/03/02 05:52:40;;;;;;;19.27;18.37;;;;;;;-141.02;100.00;55844.97;5133757;27;20228;-70
2022/03/02 05:55:08;;;;;;;20.10;19.10;;;;;;;-141.02;100.00;55844.97;5133993;27;20220;-69
2022/03/02 05:57:36;;;;;;;18.53;17.70;;;;;;;-141.02;100.00;55844.97;5133713;27;20199;-69
2022/03/02 06:00:04;;;;;;;17.03;16.33;;;;;;;-141.02;100.00;55844.97;5133594;27;20658;-70
2022/03/02 06:02:32;;;;;;;16.70;16.00;;;;;;;-141.02;100.00;55844.97;5133729;27;20635;-70
2022/03/02 06:05:00;;;;;;;18.30;17.50;;;;;;;-141.02;100.00;55844.97;5133548;27;20196;-70
2022/03/02 06:07:28;;;;;;;19.20;18.40;;;;;;;-141.02;100.00;55844.97;5134583;27;20642;-70
2022/03/02 06:09:55;;;;;;;18.50;17.70;;;;;;;-141.02;100.00;55844.97;5133769;27;20649;-70
2022/03/02 06:12:22;;;;;;;16.93;16.23;;;;;;;-141.02;100.00;55844.97;5133449;27;20731;-70
2022/03/02 06:14:50;;;;;;;16.80;16.10;;;;;;;-141.02;100.00;55844.97;5134184;27;20648;-71
2022/03/02 06:17:18;;;;;;;17.57;16.67;;;;;;;-141.02;100.00;55844.97;5133327;27;20204;-70
2022/03/02 06:19:46;;;;;;;16.67;15.97;;;;;;;-141.02;100.00;55844.97;5133338;27;20196;-70
2022/03/02 06:22:18;;;;;;;18.03;17.23;;;;;;;-141.02;100.00;55844.97;5133502;27;20226;-70
2022/03/02 06:24:45;;;;;;;18.10;17.30;;;;;;;-141.02;100.00;55844.97;5133652;27;20192;-70
2022/03/02 06:27:12;;;;;;;17.43;16.73;;;;;;;-141.02;100.00;55844.97;5133254;27;20279;-70
2022/03/02 06:29:39;;;;;;;17.87;17.07;;;;;;;-141.02;100.00;55844.97;5134000;27;20195;-70
2022/03/02 06:32:07;;;;;;;18.17;17.37;;;;;;;-141.02;100.00;55844.97;5133188;27;20238;-70
2022/03/02 06:34:34;;;;;;;17.63;16.83;;;;;;;-141.02;100.00;55844.97;5133154;27;20205;-70
2022/03/02 06:37:01;;;;;;;17.20;16.40;;;;;;;-141.02;100.00;55844.97;5132638;27;20283;-70
2022/03/02 06:39:30;;;;;;;18.00;17.10;;;;;;;-141.02;100.00;55844.97;5132997;27;20310;-70
2022/03/02 06:42:05;;;;;;;17.60;16.80;;;;;;;-141.02;100.00;55844.97;5132884;27;20638;-70
2022/03/02 06:44:34;;;;;;;17.00;16.20;;;;;;;-141.02;100.00;55844.97;5132995;27;20598;-70
2022/03/02 06:47:04;;;;;;;18.03;17.23;;;;;;;-141.02;100.00;55844.97;5132913;28;20196;-70
2022/03/02 06:49:45;;;;;;;17.10;16.40;;;;;;;-141.02;100.00;55844.97;5132962;28;20220;-70
2022/03/02 06:52:13;;;;;;;17.43;16.63;;;;;;;-141.02;100.00;55844.97;5132909;27;20562;-70
2022/03/02 06:54:44;;;;;;;16.53;15.83;;;;;;;-141.02;100.00;55844.97;5132895;27;20193;-70
2022/03/02 06:57:15;;;;;;;17.20;16.40;;;;;;;-141.02;100.00;55844.97;5133202;27;20272;-70
2022/03/02 06:59:44;;;;;;;17.10;16.30;;;;;;;-141.02;100.00;55844.97;5133196;28;20220;-70
2022/03/02 07:02:13;;;;;;;17.30;16.50;;;;;;;-141.02;100.00;55844.97;5132649;28;20548;-70
2022/03/02 07:04:41;;;;;;;17.77;16.87;;;;;;;-141.02;100.00;55844.97;5133129;27;20224;-70
2022/03/02 07:07:09;;;;;;;17.73;16.83;;;;;;;-141.02;100.00;55844.97;5132803;27;20737;-70
2022/03/02 07:09:36;;;;;;;18.97;18.00;;;;;;;-141.02;100.00;55844.97;5133048;28;20207;-70
2022/03/02 07:12:07;;;;;;;18.43;17.53;;;;;;;-141.02;100.00;55844.97;5132757;28;20674;-70
2022/03/02 07:14:36;;;;;;;19.33;18.23;;;;;;;-141.02;100.00;55844.97;5132759;28;20242;-70
2022/03/02 07:17:06;;;;;;;17.40;16.60;;;;;;;-141.02;100.00;55844.97;5132969;28;20193;-70
2022/03/02 07:19:33;;;;;;;18.07;17.17;;;;;;;-141.02;100.00;55844.97;5132976;28;20305;-70
2022/03/02 07:22:05;;;;;;;18.77;17.67;;;;;;;-141.02;100.00;55844.97;5132674;28;20197;-70
2022/03/02 07:24:37;;;;;;;18.50;17.60;;;;;;;-141.02;100.00;55844.97;5133016;28;20193;-70
2022/03/02 07:27:06;;;;;;;19.20;18.10;;;;;;;-141.02;100.00;55844.97;5132662;28;20188;-69
2022/03/02 07:29:36;;;;;;;18.23;17.33;;;;;;;-141.02;100.00;55844.97;5132885;28;20231;-70
2022/03/02 07:32:05;;;;;;;19.50;18.50;;;;;;;-141.02;100.00;55844.97;5132581;27;20245;-70
2022/03/02 07:34:33;;;;;;;19.97;18.67;;;;;;;-141.02;100.00;55844.97;5132888;28;20641;-70
2022/03/02 07:37:01;;;;;;;18.77;17.73;;;;;;;-141.02;100.00;55844.97;5132791;28;20189;-70
2022/03/02 07:39:28;;;;;;;16.97;16.17;;;;;;;-141.02;100.00;55844.97;5132503;27;20228;-70
2022/03/02 07:41:57;;;;;;;17.40;16.50;;;;;;;-141.02;100.00;55844.97;5132416;28;20197;-70
2022/03/02 07:44:27;;;;;;;18.23;17.33;;;;;;;-141.02;100.00;55844.97;5132373;28;20224;-70
2022/03/02 07:46:54;;;;;;;17.93;17.13;;;;;;;-141.02;100.00;55844.97;5132478;27;20216;-69
2022/03/02 07:49:21;;;;;;;18.97;17.97;;;;;;;-141.02;100.00;55844.97;5133177;27;20227;-70
2022/03/02 07:51:51;;;;;;;18.37;17.47;;;;;;;-141.02;100.00;55844.97;5136461;27;20192;-70
2022/03/02 07:54:22;;;;;;;17.60;16.70;;;;;;;-141.02;100.00;55844.97;5136363;27;20191;-70
2022/03/02 07:56:51;;;;;;;17.53;16.63;;;;;;;-141.02;100.00;55844.97;5136393;27;20196;-70
2022/03/02 07:59:18;;;;;;;19.30;18.27;;;;;;;-141.02;100.00;55844.97;5136291;27;20222;-70
2022/03/02 08:01:48;;;;;;;20.83;19.63;;;;;;;-141.02;100.00;55844.97;5136310;27;20279;-70
2022/03/02 08:04:15;;;;;;;19.00;17.90;;;;;;;-141.02;100.00;55844.97;5135826;27;20220;-71
2022/03/02 08:06:43;;;;;;;20.07;18.97;;;;;;;-141.02;100.00;55844.97;5135868;27;20253;-71
2022/03/02 08:09:13;;;;;;;18.57;17.67;;;;;;;-141.02;100.00;55844.97;5136689;27;20207;-70
2022/03/02 08:11:40;;;;;;;18.40;17.50;;;;;;;-141.02;100.00;55844.97;5135756;27;20221;-71
2022/03/02 08:14:08;;;;;;;19.70;18.53;;;;;;;-141.02;100.00;55844.97;5135711;27;20192;-71
2022/03/02 08:16:35;;;;;;;19.77;18.67;;;;;;;-141.02;100.00;55844.97;5135605;27;20279;-71
2022/03/02 08:19:07;;;;;;;19.87;18.63;;;;;;;-141.02;100.00;55844.97;5135702;27;20249;-71
2022/03/02 08:21:36;;;;;;;18.23;17.33;;;;;;;-141.02;100.00;55844.97;5135534;27;20198;-70
2022/03/02 08:24:06;;;;;;;17.97;17.07;;;;;;;-141.02;100.00;55844.97;5135426;27;20224;-70
2022/03/02 08:26:34;;;;;;;17.87;16.97;;;;;;;-141.02;100.00;55844.97;5136815;27;20275;-71
2022/03/02 08:29:05;;;;;;;22.27;20.47;;;;;;;-141.02;100.00;55844.97;5135453;27;20654;-71
2022/03/02 08:31:33;;;;;;;21.10;19.57;;;;;;;-141.02;100.00;55844.97;5135423;27;20192;-71
2022/03/02 08:34:01;;;;;;;18.53;17.53;;;;;;;-141.02;100.00;55844.97;5135300;27;20721;-71
2022/03/02 08:36:33;;;;;;;19.87;18.67;;;;;;;-141.02;100.00;55844.97;5135381;27;20249;-71
2022/03/02 08:39:02;;;;;;;22.27;18.63;;;;;;;-141.02;100.00;55844.97;5135364;27;20302;-71
2022/03/02 08:41:29;;;;;;;18.47;17.57;;;;;;;-141.02;100.00;55844.97;5135581;27;20358;-71
2022/03/02 08:43:57;;;;;;;20.73;19.53;;;;;;;-141.02;100.00;55844.97;5135332;27;20311;-70
2022/03/02 08:46:25;;;;;;;18.60;17.70;;;;;;;-141.02;100.00;55844.97;5135385;27;20200;-71
2022/03/02 08:48:52;;;;;;;36.20;19.30;;;;;;;-141.02;100.00;55844.97;5135364;27;20188;-71
2022/03/02 08:51:22;;;;;;;20.63;19.37;;;;;;;-141.02;100.00;55844.97;5135037;27;20206;-71
2022/03/02 08:53:52;;;;;;;19.73;18.63;;;;;;;-141.02;100.00;55844.97;5134995;27;20288;-71
2022/03/02 08:56:19;;;;;;;23.20;21.80;;;;;;;-141.02;100.00;55844.97;5134908;27;20648;-71
2022/03/02 08:58:47;;;;;;;22.13;20.83;;;;;;;-141.02;100.00;55844.97;5135232;27;20239;-72
2022/03/02 09:01:15;;;;;;;19.73;18.53;;;;;;;-141.02;100.00;55844.97;5134457;27;20657;-72
2022/03/02 09:03:46;;;;;;;21.20;19.90;;;;;;;-141.02;100.00;55844.97;5135026;27;20644;-72
2022/03/02 09:06:13;;;;;;;20.13;19.03;;;;;;;-141.02;100.00;55844.97;5135599;27;20275;-72
2022/03/02 09:08:40;;;;;;;21.63;20.27;;;;;;;-141.02;100.00;55844.97;5134987;27;20287;-71
2022/03/02 09:11:09;;;;;;;24.43;22.53;;;;;;;-141.02;100.00;55844.97;5134942;27;20257;-72
2022/03/02 09:13:37;;;;;;;21.10;19.90;;;;;;;-141.02;100.00;55844.97;5134556;27;20196;-72
2022/03/02 09:16:05;;;;;;;21.73;20.53;;;;;;;-141.02;100.00;55844.97;5134872;27;20203;-73
2022/03/02 09:18:32;;;;;;;20.13;19.03;;;;;;;-141.02;100.00;55844.97;5134447;27;20662;-73
2022/03/02 09:21:03;;;;;;;21.07;19.87;;;;;;;-141.02;100.00;55844.97;5134742;27;20433;-73
2022/03/02 09:23:33;;;;;;;20.50;19.30;;;;;;;-141.02;100.00;55844.97;5134364;27;20639;-74
2022/03/02 09:26:05;;;;;;;23.10;21.40;;;;;;;-141.02;100.00;55844.97;5134320;27;20718;-73
2022/03/02 09:28:36;;;;;;;23.63;21.93;;;;;;;-141.02;100.00;55844.97;5134627;27;20284;-73
2022/03/02 09:31:04;;;;;;;23.63;22.03;;;;;;;-141.02;100.00;55844.97;5134529;27;20245;-74
2022/03/02 09:33:31;;;;;;;22.03;20.83;;;;;;;-141.02;100.00;55844.97;5135017;27;20235;-73
2022/03/02 09:36:03;;;;;;;24.27;22.73;;;;;;;-141.02;100.00;55844.97;5134104;27;20195;-73
2022/03/02 09:38:32;;;;;;;24.50;23.10;;;;;;;-141.02;100.00;55844.97;5134502;27;20188;-73
2022/03/02 09:41:04;;;;;;;25.23;23.73;;;;;;;-141.02;100.00;55844.97;5133851;27;20235;-73
2022/03/02 09:43:35;;;;;;;23.07;21.77;;;;;;;-141.02;100.00;55844.97;5134249;27;20216;-73
2022/03/02 09:46:05;;;;;;;26.70;25.10;;;;;;;-141.02;100.00;55844.97;5134778;27;20188;-72
2022/03/02 09:48:34;;;;;;;26.53;24.07;;;;;;;-141.02;100.00;55844.97;5134010;27;20271;-72
2022/03/02 09:51:03;;;;;;;27.53;25.73;;;;;;;-141.02;100.00;55844.97;5134160;27;20296;-72
2022/03/02 09:53:32;;;;;;;22.67;21.47;;;;;;;-141.02;100.00;55844.97;5134174;27;20227;-73
2022/03/02 09:56:03;;;;;;;23.63;22.20;;;;;;;-141.02;100.00;55844.97;5133788;27;20662;-73
2022/03/02 09:58:30;;;;;;;22.87;21.63;;;;;;;-141.02;100.00;55844.97;5133802;27;20672;-73
2022/03/02 10:01:00;;;;;;;22.00;20.80;;;;;;;-141.02;100.00;55844.97;5133749;27;20606;-71
2022/03/02 10:03:35;;;;;;;24.97;23.33;;;;;;;-141.02;100.00;55844.97;5133814;27;20255;-73
2022/03/02 10:06:05;;;;;;;23.27;22.07;;;;;;;-141.02;100.00;55844.97;5133651;27;20276;-73
2022/03/02 10:08:35;;;;;;;24.70;23.13;;;;;;;-141.02;100.00;55844.97;5133572;27;20573;-73
2022/03/02 10:11:05;;;;;;;22.70;21.43;;;;;;;-141.02;100.00;55844.97;5133505;27;20192;-73
2022/03/02 10:13:33;;;;;;;23.97;22.67;;;;;;;-141.02;100.00;55844.97;5132728;27;20271;-73
2022/03/02 10:16:04;;;;;;;25.70;24.10;;;;;;;-141.02;100.00;55844.97;5133430;27;20246;-73
2022/03/02 10:18:35;;;;;;;26.10;24.37;;;;;;;-141.02;100.00;55844.97;5133735;27;20184;-73
2022/03/02 10:21:05;;;;;;;23.63;22.43;;;;;;;-141.02;100.00;55844.97;5133529;27;20642;-73
2022/03/02 10:23:41;;;;;;;23.97;22.67;;;;;;;-141.02;100.00;55844.97;5134218;27;20220;-74
2022/03/02 10:26:16;;;;;;;24.23;22.93;;;;;;;-141.02;100.00;55844.97;5134096;27;20252;-73
2022/03/02 10:28:52;;;;;;;24.73;23.43;;;;;;;-141.02;100.00;55844.97;5133474;27;20660;-74
2022/03/02 10:31:45;;;;;;;23.53;22.27;;;;;;;-141.02;100.00;55844.97;5133708;27;20295;-74
2022/03/02 10:34:34;;;;;;;24.40;23.00;;;;;;;-141.02;100.00;55844.97;5133868;27;20185;-73
2022/03/02 10:37:07;;;;;;;22.93;21.27;;;;;;;-141.02;100.00;55844.97;5133824;27;20189;-74
2022/03/02 10:39:50;;;;;;;21.77;20.57;;;;;;;-141.02;100.00;55844.97;5133257;27;20734;-75
2022/03/02 10:42:22;;;;;;;21.80;20.70;;;;;;;-141.02;100.00;55844.97;5133413;27;20184;-74
2022/03/02 10:45:10;;;;;;;23.13;21.77;;;;;;;-141.02;100.00;55844.97;5133783;27;20276;-73
2022/03/02 10:47:46;;;;;;;22.63;21.50;;;;;;;-141.02;100.00;55844.97;5131013;27;20577;-74
2022/03/02 10:50:14;;;;;;;24.33;22.83;;;;;;;-141.02;100.00;55844.97;5133436;27;20225;-73
2022/03/02 10:52:42;;;;;;;22.83;21.43;;;;;;;-141.02;100.00;55844.97;5132987;28;20680;-73
2022/03/02 10:55:13;;;;;;;23.30;21.80;;;;;;;-141.02;100.00;55844.97;5133002;27;20253;-73
2022/03/02 10:57:40;;;;;;;22.10;20.93;;;;;;;-141.02;100.00;55844.97;5133273;28;20188;-73
2022/03/02 11:00:13;;;;;;;21.70;20.60;;;;;;;-141.02;100.00;55844.97;5133204;27;20197;-73